Time;durP1;ratioP1;P1;durP2;ratioP2;P2;SDS_P1;SDS_P2;PMS_P1;PMS_P2;Temp;Humidity;BMP_temperature;BMP_pressure;BME280_temperature;BME280_humidity;BME280_pressure;Samples;Min_cycle;Max_cycle;Signal;HPM_P1;HPM_P2
2022/11/05 00:09:31;;;;;;;16.00;8.48;;;;;;;;;;5025583;28;20075;-67
2022/11/05 00:17:34;;;;;;;28.23;8.38;;;;;;;;;;5026241;28;20019;-66
2022/11/05 00:19:59;;;;;;;18.48;8.00;;;;;;;;;;5018241;28;20125;-67
2022/11/05 00:25:18;;;;;;;19.25;8.45;;;;;;;;;;5027749;28;20478;-66
2022/11/05 00:27:44;;;;;;;19.80;8.63;;;;;;;;;;5022467;28;20478;-67
2022/11/05 00:30:10;;;;;;;12.25;7.50;;;;;;;;;;5028860;28;20021;-65
2022/11/05 00:32:35;;;;;;;15.02;7.93;;;;;;;;;;5032163;28;20055;-67
2022/11/05 00:35:00;;;;;;;24.05;8.40;;;;;;;;;;5031507;28;20615;-67
2022/11/05 00:37:26;;;;;;;22.05;8.27;;;;;;;;;;5021036;28;20009;-66
2022/11/05 00:39:52;;;;;;;20.02;8.80;;;;;;;;;;5016465;28;20100;-69
2022/11/05 00:45:01;;;;;;;14.27;7.22;;;;;;;;;;5027022;28;20390;-68
2022/11/05 00:50:10;;;;;;;18.77;8.95;;;;;;;;;;5031276;28;20051;-67
2022/11/05 00:52:54;;;;;;;22.13;9.13;;;;;;;;;;5032499;28;20045;-66
2022/11/05 00:55:23;;;;;;;17.58;8.30;;;;;;;;;;5020114;28;20042;-68
2022/11/05 00:57:48;;;;;;;14.60;8.18;;;;;;;;;;5024298;28;20105;-66
2022/11/05 01:00:14;;;;;;;21.17;8.82;;;;;;;;;;5022647;28;20271;-66
2022/11/05 01:02:39;;;;;;;37.47;9.05;;;;;;;;;;5030943;28;20025;-68
2022/11/05 01:05:04;;;;;;;20.33;8.10;;;;;;;;;;5029971;28;20101;-67
2022/11/05 01:07:29;;;;;;;18.13;7.80;;;;;;;;;;5021325;28;20766;-67
2022/11/05 01:09:54;;;;;;;20.35;9.20;;;;;;;;;;5030800;28;20017;-66
2022/11/05 01:12:19;;;;;;;22.00;8.35;;;;;;;;;;5018648;28;20013;-66
2022/11/05 01:14:45;;;;;;;20.00;8.77;;;;;;;;;;5020132;28;20411;-65
2022/11/05 01:17:10;;;;;;;15.93;8.63;;;;;;;;;;5029185;28;20321;-67
2022/11/05 01:19:35;;;;;;;19.75;8.98;;;;;;;;;;5031219;28;20017;-67
2022/11/05 01:22:00;;;;;;;19.77;9.43;;;;;;;;;;5018105;28;20013;-67
2022/11/05 01:24:25;;;;;;;18.23;9.05;;;;;;;;;;5029077;28;20056;-68
2022/11/05 01:26:51;;;;;;;19.27;8.75;;;;;;;;;;5027123;28;20017;-67
2022/11/05 01:29:16;;;;;;;19.92;10.27;;;;;;;;;;5020773;28;20032;-67
2022/11/05 01:31:41;;;;;;;20.83;9.85;;;;;;;;;;5029527;28;20522;-65
2022/11/05 01:34:07;;;;;;;23.45;9.70;;;;;;;;;;5028311;28;20009;-68
2022/11/05 01:36:32;;;;;;;29.42;10.52;;;;;;;;;;5029820;28;20066;-67
2022/11/05 01:38:57;;;;;;;25.27;10.27;;;;;;;;;;5028278;28;20018;-68
2022/11/05 01:41:22;;;;;;;25.45;9.68;;;;;;;;;;5024379;28;20034;-66
2022/11/05 01:43:47;;;;;;;21.10;9.50;;;;;;;;;;5030780;28;20013;-67
2022/11/05 01:46:13;;;;;;;21.48;9.68;;;;;;;;;;5029694;28;20475;-66
2022/11/05 01:48:39;;;;;;;24.48;10.52;;;;;;;;;;5028641;28;20514;-66
2022/11/05 01:51:07;;;;;;;20.23;9.40;;;;;;;;;;5031177;28;20195;-65
2022/11/05 01:53:40;;;;;;;20.13;9.45;;;;;;;;;;5031158;28;20100;-66
2022/11/05 01:56:08;;;;;;;20.33;10.15;;;;;;;;;;5031742;28;20029;-66
2022/11/05 01:58:37;;;;;;;24.92;10.65;;;;;;;;;;5031336;28;20013;-68
2022/11/05 02:01:02;;;;;;;19.58;10.82;;;;;;;;;;5025077;28;20025;-68
2022/11/05 02:03:28;;;;;;;23.73;11.15;;;;;;;;;;5024757;28;20470;-66
2022/11/05 02:05:54;;;;;;;24.60;10.57;;;;;;;;;;5021335;28;20013;-66
2022/11/05 02:08:33;;;;;;;22.20;10.52;;;;;;;;;;5024812;28;20446;-67
2022/11/05 02:10:58;;;;;;;27.02;10.38;;;;;;;;;;5022805;28;20092;-65
2022/11/05 02:13:23;;;;;;;30.30;11.35;;;;;;;;;;5030447;28;20638;-66
2022/11/05 02:15:55;;;;;;;27.10;12.35;;;;;;;;;;5019911;28;20030;-65
2022/11/05 02:18:30;;;;;;;27.23;11.63;;;;;;;;;;5024315;28;20411;-66
2022/11/05 02:21:14;;;;;;;22.02;11.82;;;;;;;;;;5024815;28;20131;-66
2022/11/05 02:23:52;;;;;;;24.83;11.68;;;;;;;;;;5030885;28;20017;-66
2022/11/05 02:26:50;;;;;;;25.20;11.38;;;;;;;;;;5030249;28;20045;-67
2022/11/05 02:29:29;;;;;;;19.75;10.00;;;;;;;;;;5000788;28;20064;-65
2022/11/05 02:32:15;;;;;;;22.67;10.15;;;;;;;;;;5029648;28;20028;-66
2022/11/05 02:34:46;;;;;;;25.77;11.05;;;;;;;;;;5018021;28;20044;-68
2022/11/05 02:37:20;;;;;;;20.92;11.70;;;;;;;;;;5022582;28;20036;-67
2022/11/05 02:39:50;;;;;;;26.48;11.00;;;;;;;;;;5030383;28;20040;-66
2022/11/05 02:42:37;;;;;;;23.30;10.55;;;;;;;;;;5022831;28;20033;-69
2022/11/05 02:45:09;;;;;;;18.98;9.60;;;;;;;;;;5024936;28;20076;-68
2022/11/05 02:47:39;;;;;;;24.48;10.70;;;;;;;;;;5026080;28;20052;-68
2022/11/05 02:50:23;;;;;;;19.48;10.63;;;;;;;;;;5029688;28;20153;-68
2022/11/05 02:53:00;;;;;;;25.92;10.45;;;;;;;;;;5018452;28;20088;-65
2022/11/05 02:55:33;;;;;;;24.00;10.07;;;;;;;;;;5033847;28;20113;-65
2022/11/05 02:58:00;;;;;;;24.58;10.40;;;;;;;;;;5022924;28;20410;-66
2022/11/05 03:00:39;;;;;;;28.23;11.35;;;;;;;;;;5033528;28;20041;-65
2022/11/05 03:03:04;;;;;;;;;;;;;;;;;;5031219;28;20024;-65
2022/11/05 03:05:38;;;;;;;21.88;10.23;;;;;;;;;;5026906;28;19901;-66
2022/11/05 03:08:07;;;;;;;25.33;10.18;;;;;;;;;;5024337;28;20025;-66
2022/11/05 03:10:35;;;;;;;23.92;11.40;;;;;;;;;;5025154;28;20064;-67
2022/11/05 03:13:00;;;;;;;20.38;11.32;;;;;;;;;;5033034;28;20026;-66
2022/11/05 03:15:44;;;;;;;22.42;8.77;;;;;;;;;;5031388;28;20375;-65
2022/11/05 03:18:09;;;;;;;18.85;9.63;;;;;;;;;;5032750;28;20017;-65
2022/11/05 03:20:47;;;;;;;22.27;9.97;;;;;;;;;;5019893;28;20024;-66
2022/11/05 03:23:18;;;;;;;20.40;10.02;;;;;;;;;;5033239;28;20334;-66
2022/11/05 03:25:48;;;;;;;22.48;9.15;;;;;;;;;;5027116;28;20018;-65
2022/11/05 03:28:15;;;;;;;21.98;9.50;;;;;;;;;;5025461;28;20112;-66
2022/11/05 03:30:41;;;;;;;21.92;9.50;;;;;;;;;;5020208;28;20013;-64
2022/11/05 03:33:08;;;;;;;27.15;10.23;;;;;;;;;;5026334;28;20024;-67
2022/11/05 03:35:36;;;;;;;25.92;9.98;;;;;;;;;;5034153;28;20009;-67
2022/11/05 03:38:04;;;;;;;24.73;9.15;;;;;;;;;;5032474;28;20032;-65
2022/11/05 03:40:32;;;;;;;15.98;9.07;;;;;;;;;;5017783;28;20048;-65
2022/11/05 03:42:58;;;;;;;20.90;9.48;;;;;;;;;;5027977;28;20025;-66
2022/11/05 03:45:30;;;;;;;21.70;8.93;;;;;;;;;;5033735;28;20022;-65
2022/11/05 03:47:57;;;;;;;15.60;8.00;;;;;;;;;;5031993;28;20163;-66
2022/11/05 03:50:41;;;;;;;23.08;9.00;;;;;;;;;;5031615;28;20347;-63
2022/11/05 03:53:10;;;;;;;22.38;8.32;;;;;;;;;;5033008;28;20022;-66
2022/11/05 03:55:39;;;;;;;21.13;8.93;;;;;;;;;;5033790;28;20471;-65
2022/11/05 03:58:04;;;;;;;17.15;8.02;;;;;;;;;;5031743;28;20028;-64
2022/11/05 04:00:30;;;;;;;21.27;8.68;;;;;;;;;;5033448;28;20026;-69
2022/11/05 04:02:55;;;;;;;16.52;7.97;;;;;;;;;;5033144;28;20048;-65
2022/11/05 04:05:20;;;;;;;19.58;8.25;;;;;;;;;;5033823;28;20025;-68
2022/11/05 04:13:26;;;;;;;20.58;7.95;;;;;;;;;;5035263;28;20454;-67
2022/11/05 04:18:36;;;;;;;16.98;7.93;;;;;;;;;;5015012;28;20037;-66
2022/11/05 04:26:29;;;;;;;17.65;7.72;;;;;;;;;;5032842;28;20115;-65
2022/11/05 04:31:38;;;;;;;22.63;8.60;;;;;;;;;;5029635;28;20020;-65
2022/11/05 04:34:04;;;;;;;16.92;6.72;;;;;;;;;;5034313;28;20017;-66
2022/11/05 04:36:29;;;;;;;23.33;8.48;;;;;;;;;;5031955;28;20009;-68
2022/11/05 04:38:54;;;;;;;18.65;8.98;;;;;;;;;;5013209;28;20025;-67
2022/11/05 04:41:19;;;;;;;24.73;6.97;;;;;;;;;;5012320;28;20025;-64
2022/11/05 04:43:45;;;;;;;20.85;7.40;;;;;;;;;;5010829;28;20495;-65
2022/11/05 04:46:10;;;;;;;18.50;7.32;;;;;;;;;;5016900;28;20045;-64
2022/11/05 04:48:35;;;;;;;24.65;7.45;;;;;;;;;;5026286;28;20026;-64
2022/11/05 04:51:01;;;;;;;18.20;7.18;;;;;;;;;;5013806;28;20018;-64
2022/11/05 04:53:26;;;;;;;15.57;6.97;;;;;;;;;;5013525;28;20018;-68
2022/11/05 04:55:51;;;;;;;19.83;7.65;;;;;;;;;;5013528;28;20060;-66
2022/11/05 04:58:17;;;;;;;21.50;7.20;;;;;;;;;;5013728;28;20076;-67
2022/11/05 05:00:42;;;;;;;17.45;7.00;;;;;;;;;;5025415;28;20120;-65
2022/11/05 05:03:07;;;;;;;19.10;7.00;;;;;;;;;;5030207;28;20021;-65
2022/11/05 05:05:32;;;;;;;18.48;6.35;;;;;;;;;;5026341;28;20041;-66
2022/11/05 05:08:01;;;;;;;19.73;6.80;;;;;;;;;;5018821;28;20029;-65
2022/11/05 05:10:26;;;;;;;14.77;6.25;;;;;;;;;;5027940;28;20028;-65
2022/11/05 05:12:51;;;;;;;14.02;5.82;;;;;;;;;;5014020;28;20097;-66
2022/11/05 05:15:17;;;;;;;15.48;6.70;;;;;;;;;;5022050;28;20017;-66
2022/11/05 05:17:42;;;;;;;17.10;6.75;;;;;;;;;;5027232;28;20367;-66
2022/11/05 05:22:52;;;;;;;20.02;7.43;;;;;;;;;;5015002;28;20024;-66
2022/11/05 05:25:17;;;;;;;18.15;7.03;;;;;;;;;;5013320;28;20094;-65
2022/11/05 05:27:42;;;;;;;17.95;7.57;;;;;;;;;;5011695;28;20448;-66
2022/11/05 05:30:08;;;;;;;14.02;6.40;;;;;;;;;;5015636;28;20017;-66
2022/11/05 05:32:33;;;;;;;14.88;7.47;;;;;;;;;;5026035;28;20033;-66
2022/11/05 05:34:58;;;;;;;21.35;7.35;;;;;;;;;;5026587;28;20039;-65
2022/11/05 05:37:23;;;;;;;23.05;7.50;;;;;;;;;;5024072;28;20022;-67
2022/11/05 05:39:49;;;;;;;17.33;7.40;;;;;;;;;;5029394;28;20021;-65
2022/11/05 05:42:14;;;;;;;20.10;7.32;;;;;;;;;;5031597;28;20021;-66
2022/11/05 05:44:39;;;;;;;21.90;7.85;;;;;;;;;;5029113;28;20021;-66
2022/11/05 05:47:04;;;;;;;25.83;9.45;;;;;;;;;;5031002;28;20456;-67
2022/11/05 05:49:30;;;;;;;19.67;9.18;;;;;;;;;;5031289;28;20025;-65
2022/11/05 05:51:55;;;;;;;38.67;21.63;;;;;;;;;;5031929;28;20032;-65
2022/11/05 05:54:21;;;;;;;50.45;25.90;;;;;;;;;;5029788;28;20037;-66
2022/11/05 05:56:47;;;;;;;40.95;18.20;;;;;;;;;;5031637;28;20109;-65
2022/11/05 05:59:12;;;;;;;29.83;10.57;;;;;;;;;;5031004;28;20445;-65
2022/11/05 06:01:37;;;;;;;18.42;8.68;;;;;;;;;;5029879;28;20025;-65
2022/11/05 06:04:02;;;;;;;27.95;9.02;;;;;;;;;;5030466;28;20101;-67
2022/11/05 06:06:28;;;;;;;22.20;9.20;;;;;;;;;;5030117;28;20041;-66
2022/11/05 06:08:53;;;;;;;27.65;9.30;;;;;;;;;;5030621;28;20119;-65
2022/11/05 06:11:18;;;;;;;26.60;9.52;;;;;;;;;;5032641;28;20593;-65
2022/11/05 06:13:44;;;;;;;20.88;9.30;;;;;;;;;;5031164;28;20010;-67
2022/11/05 06:16:09;;;;;;;21.05;8.43;;;;;;;;;;5029956;28;20049;-66
2022/11/05 06:18:35;;;;;;;20.58;9.98;;;;;;;;;;5032116;28;20025;-69
2022/11/05 06:21:04;;;;;;;20.63;8.65;;;;;;;;;;5026258;28;20018;-65
2022/11/05 06:23:33;;;;;;;23.17;9.88;;;;;;;;;;5011350;28;20052;-65
2022/11/05 06:25:58;;;;;;;;;;;;;;;;;;5013262;28;20018;-65
2022/11/05 06:28:23;;;;;;;23.52;9.98;;;;;;;;;;5015784;28;19984;-66
2022/11/05 06:30:49;;;;;;;21.90;10.48;;;;;;;;;;5025663;28;20022;-64
2022/11/05 06:33:14;;;;;;;24.63;10.48;;;;;;;;;;5033744;28;20021;-67
2022/11/05 06:35:39;;;;;;;20.63;9.65;;;;;;;;;;5031509;28;20009;-64
2022/11/05 06:38:04;;;;;;;20.88;10.48;;;;;;;;;;5022139;28;20030;-66
2022/11/05 06:40:29;;;;;;;22.80;10.02;;;;;;;;;;5022563;28;20021;-65
2022/11/05 06:42:55;;;;;;;28.50;10.43;;;;;;;;;;5023191;28;20057;-67
2022/11/05 06:45:20;;;;;;;28.98;10.23;;;;;;;;;;5018762;28;20045;-66
2022/11/05 06:47:46;;;;;;;21.98;10.85;;;;;;;;;;5033600;28;20017;-64
2022/11/05 06:50:11;;;;;;;21.90;10.05;;;;;;;;;;5030348;28;20018;-67
2022/11/05 06:52:36;;;;;;;25.88;10.88;;;;;;;;;;5016900;28;20029;-66
2022/11/05 06:55:02;;;;;;;20.33;10.45;;;;;;;;;;5015627;28;20014;-66
2022/11/05 06:57:27;;;;;;;27.17;11.07;;;;;;;;;;5016005;28;20010;-68
2022/11/05 06:59:52;;;;;;;24.55;10.60;;;;;;;;;;5016156;28;20014;-67
2022/11/05 07:02:18;;;;;;;31.25;12.40;;;;;;;;;;5028043;28;20025;-66
2022/11/05 07:04:43;;;;;;;22.67;10.43;;;;;;;;;;5032953;28;20305;-65
2022/11/05 07:07:08;;;;;;;26.67;11.38;;;;;;;;;;5024324;28;20019;-66
2022/11/05 07:09:37;;;;;;;35.33;12.23;;;;;;;;;;5014883;28;20018;-64
2022/11/05 07:12:02;;;;;;;29.38;11.70;;;;;;;;;;5016225;28;20408;-66
2022/11/05 07:14:27;;;;;;;26.00;12.95;;;;;;;;;;5016248;28;20025;-64
2022/11/05 07:16:52;;;;;;;30.88;12.93;;;;;;;;;;5028482;28;20450;-68
2022/11/05 07:19:18;;;;;;;27.42;12.77;;;;;;;;;;5016983;28;20021;-66
2022/11/05 07:21:44;;;;;;;33.58;11.48;;;;;;;;;;5014491;28;20049;-66
2022/11/05 07:24:09;;;;;;;25.73;11.85;;;;;;;;;;5011932;28;20014;-65
2022/11/05 07:26:35;;;;;;;26.13;12.15;;;;;;;;;;5013839;28;20049;-66
2022/11/05 07:29:00;;;;;;;26.17;10.60;;;;;;;;;;5014637;28;20020;-66
2022/11/05 07:31:25;;;;;;;30.05;11.35;;;;;;;;;;5023998;28;20022;-66
2022/11/05 07:33:50;;;;;;;29.42;11.20;;;;;;;;;;5026022;28;20057;-66
2022/11/05 07:36:15;;;;;;;25.05;10.63;;;;;;;;;;5034142;28;20020;-67
2022/11/05 07:38:40;;;;;;;25.47;11.57;;;;;;;;;;5034296;28;20096;-67
2022/11/05 07:41:06;;;;;;;28.50;11.50;;;;;;;;;;5032676;28;20585;-65
2022/11/05 07:43:31;;;;;;;29.80;13.05;;;;;;;;;;5034044;28;20029;-68
2022/11/05 07:45:56;;;;;;;27.27;11.88;;;;;;;;;;5031790;28;20059;-66
2022/11/05 07:48:21;;;;;;;25.15;11.05;;;;;;;;;;5031238;28;20421;-67
2022/11/05 07:50:49;;;;;;;28.85;11.00;;;;;;;;;;5032485;28;20017;-67
2022/11/05 07:53:15;;;;;;;25.60;10.38;;;;;;;;;;5032672;28;20040;-66
2022/11/05 07:55:40;;;;;;;32.97;10.93;;;;;;;;;;5028685;28;20554;-65
2022/11/05 07:58:06;;;;;;;20.77;9.52;;;;;;;;;;5032604;28;20391;-64
2022/11/05 08:00:31;;;;;;;29.63;10.73;;;;;;;;;;5030240;28;20032;-68
2022/11/05 08:02:56;;;;;;;22.90;9.35;;;;;;;;;;5020251;28;20135;-67
2022/11/05 08:05:22;;;;;;;20.10;9.83;;;;;;;;;;5021451;28;20503;-66
2022/11/05 08:07:47;;;;;;;26.23;9.57;;;;;;;;;;5024950;28;20247;-65
2022/11/05 08:10:12;;;;;;;19.67;9.25;;;;;;;;;;5025092;28;20017;-68
2022/11/05 08:12:37;;;;;;;20.38;9.20;;;;;;;;;;5025501;28;20028;-69
2022/11/05 08:15:02;;;;;;;25.30;9.70;;;;;;;;;;5031263;28;20312;-66
2022/11/05 08:17:28;;;;;;;15.98;8.98;;;;;;;;;;5027162;28;20418;-69
2022/11/05 08:19:53;;;;;;;23.08;8.10;;;;;;;;;;5024032;28;20529;-67
2022/11/05 08:22:18;;;;;;;24.45;8.38;;;;;;;;;;5035793;28;20033;-66
2022/11/05 08:24:44;;;;;;;18.65;8.27;;;;;;;;;;5030969;28;20017;-66
2022/11/05 08:27:09;;;;;;;20.40;7.47;;;;;;;;;;5026937;28;20064;-67
2022/11/05 08:29:34;;;;;;;26.25;7.82;;;;;;;;;;5020932;28;20029;-65
2022/11/05 08:32:00;;;;;;;16.10;6.20;;;;;;;;;;5028404;28;20022;-67
2022/11/05 08:34:25;;;;;;;28.17;6.20;;;;;;;;;;5030798;28;20021;-68
2022/11/05 08:36:50;;;;;;;20.20;6.55;;;;;;;;;;5031221;28;20073;-68
2022/11/05 08:39:17;;;;;;;18.45;5.78;;;;;;;;;;5021780;28;20651;-69
2022/11/05 08:41:43;;;;;;;13.48;5.30;;;;;;;;;;5031089;28;20033;-67
2022/11/05 08:44:08;;;;;;;20.63;5.45;;;;;;;;;;5023157;28;20030;-67
2022/11/05 08:46:34;;;;;;;17.63;5.72;;;;;;;;;;5026515;28;20068;-67
2022/11/05 08:48:59;;;;;;;19.98;5.82;;;;;;;;;;5020052;28;20017;-69
2022/11/05 08:51:24;;;;;;;19.05;6.28;;;;;;;;;;5028008;28;20475;-68
2022/11/05 08:53:49;;;;;;;21.38;6.28;;;;;;;;;;5029827;28;20104;-65
2022/11/05 08:56:14;;;;;;;18.98;5.10;;;;;;;;;;5016553;28;20029;-67
2022/11/05 08:58:40;;;;;;;12.80;4.73;;;;;;;;;;5031099;28;20044;-65
2022/11/05 09:01:05;;;;;;;16.10;5.28;;;;;;;;;;5030530;28;20302;-66
2022/11/05 09:03:30;;;;;;;19.15;5.70;;;;;;;;;;5022678;28;20009;-65
2022/11/05 09:05:55;;;;;;;17.95;5.03;;;;;;;;;;5024705;28;20088;-66
2022/11/05 09:08:21;;;;;;;22.80;4.88;;;;;;;;;;5026555;28;20013;-64
2022/11/05 09:10:46;;;;;;;10.77;3.88;;;;;;;;;;5032737;28;20021;-65
2022/11/05 09:13:11;;;;;;;22.98;5.57;;;;;;;;;;5032393;28;20025;-65
2022/11/05 09:15:37;;;;;;;13.63;3.78;;;;;;;;;;5033583;28;20144;-66
2022/11/05 09:18:04;;;;;;;19.02;5.10;;;;;;;;;;5031538;28;20025;-66
2022/11/05 09:20:29;;;;;;;17.42;4.18;;;;;;;;;;5033175;28;20029;-65
2022/11/05 09:22:54;;;;;;;19.33;5.45;;;;;;;;;;5017078;28;20044;-68
2022/11/05 09:25:20;;;;;;;18.90;4.65;;;;;;;;;;5028201;28;20021;-66
2022/11/05 09:27:45;;;;;;;20.67;7.00;;;;;;;;;;5029341;28;20013;-68
2022/11/05 09:30:11;;;;;;;17.13;5.22;;;;;;;;;;5030763;28;20075;-67
2022/11/05 09:32:36;;;;;;;34.85;5.82;;;;;;;;;;5027762;28;20075;-67
2022/11/05 09:35:02;;;;;;;18.17;5.85;;;;;;;;;;5028116;28;20041;-66
2022/11/05 09:37:28;;;;;;;11.25;4.82;;;;;;;;;;5026339;28;20009;-68
2022/11/05 09:39:53;;;;;;;26.00;5.63;;;;;;;;;;5028405;28;20026;-67
2022/11/05 09:42:20;;;;;;;21.55;5.30;;;;;;;;;;5027720;28;20026;-65
2022/11/05 09:44:51;;;;;;;19.60;5.32;;;;;;;;;;5022739;28;20030;-65
2022/11/05 09:47:23;;;;;;;14.80;4.20;;;;;;;;;;5028401;28;20025;-66
2022/11/05 09:49:50;;;;;;;17.92;4.50;;;;;;;;;;5028442;28;20032;-67
2022/11/05 09:52:21;;;;;;;16.17;5.53;;;;;;;;;;5026984;28;20025;-67
2022/11/05 09:54:47;;;;;;;13.07;4.28;;;;;;;;;;5016123;28;20100;-69
2022/11/05 09:57:15;;;;;;;19.50;5.80;;;;;;;;;;5028260;28;20048;-68
2022/11/05 09:59:43;;;;;;;17.37;5.63;;;;;;;;;;5029791;28;20029;-68
2022/11/05 10:02:15;;;;;;;18.00;5.22;;;;;;;;;;5028290;28;20356;-66
2022/11/05 10:04:41;;;;;;;17.73;4.50;;;;;;;;;;5025890;28;20484;-66
2022/11/05 10:07:11;;;;;;;16.58;4.43;;;;;;;;;;5024645;28;20070;-67
2022/11/05 10:09:39;;;;;;;16.25;5.70;;;;;;;;;;5029540;28;20025;-65
2022/11/05 10:12:06;;;;;;;23.42;5.03;;;;;;;;;;5029256;28;20005;-67
2022/11/05 10:14:35;;;;;;;20.77;5.25;;;;;;;;;;5030064;28;20494;-67
2022/11/05 10:17:00;;;;;;;;;;;;;;;;;;5028221;28;20013;-68
2022/11/05 10:19:31;;;;;;;17.75;4.13;;;;;;;;;;5027575;28;20304;-66
2022/11/05 10:22:04;;;;;;;19.40;4.70;;;;;;;;;;5017395;28;20460;-66
2022/11/05 10:24:29;;;;;;;23.73;5.40;;;;;;;;;;5028986;28;20026;-66
2022/11/05 10:26:55;;;;;;;13.65;4.63;;;;;;;;;;5015694;28;20116;-67
2022/11/05 10:29:29;;;;;;;14.38;3.97;;;;;;;;;;5026659;28;20063;-67
2022/11/05 10:31:55;;;;;;;16.77;4.05;;;;;;;;;;5022192;28;20025;-71
2022/11/05 10:34:22;;;;;;;27.95;4.78;;;;;;;;;;5027663;28;20010;-67
2022/11/05 10:36:47;;;;;;;21.15;5.68;;;;;;;;;;5027785;28;20013;-67
2022/11/05 10:39:12;;;;;;;19.77;5.45;;;;;;;;;;5020528;28;20029;-68
2022/11/05 10:42:03;;;;;;;12.93;4.90;;;;;;;;;;5023126;28;20030;-68
2022/11/05 10:44:35;;;;;;;17.83;4.53;;;;;;;;;;5017951;28;20033;-67
2022/11/05 10:47:00;;;;;;;18.73;3.83;;;;;;;;;;5028544;28;20152;-66
2022/11/05 10:49:25;;;;;;;16.20;3.72;;;;;;;;;;5029222;28;20625;-67
2022/11/05 10:51:52;;;;;;;11.03;3.37;;;;;;;;;;5024103;28;20025;-68
2022/11/05 10:54:19;;;;;;;12.68;4.13;;;;;;;;;;5028415;28;20300;-68
2022/11/05 10:56:45;;;;;;;14.85;3.95;;;;;;;;;;5026754;28;20006;-70
2022/11/05 10:59:25;;;;;;;23.02;3.80;;;;;;;;;;5018144;28;20021;-67
2022/11/05 11:01:58;;;;;;;11.27;3.08;;;;;;;;;;5014536;28;20014;-68
2022/11/05 11:04:25;;;;;;;8.35;2.58;;;;;;;;;;5028225;28;20143;-68
2022/11/05 11:06:51;;;;;;;12.57;2.78;;;;;;;;;;5027392;28;20052;-68
2022/11/05 11:09:22;;;;;;;20.58;3.45;;;;;;;;;;5025452;28;20124;-68
2022/11/05 11:11:53;;;;;;;13.93;2.85;;;;;;;;;;5025522;28;20017;-67
2022/11/05 11:14:20;;;;;;;12.18;3.15;;;;;;;;;;5015192;28;20016;-66
2022/11/05 11:16:47;;;;;;;15.23;3.10;;;;;;;;;;5016012;28;20146;-66
2022/11/05 11:19:32;;;;;;;10.55;2.60;;;;;;;;;;5024240;28;20613;-66
2022/11/05 11:22:03;;;;;;;17.85;2.30;;;;;;;;;;5021269;28;20751;-67
2022/11/05 11:24:41;;;;;;;23.95;2.75;;;;;;;;;;5026093;28;20441;-68
2022/11/05 11:27:14;;;;;;;20.85;2.80;;;;;;;;;;5025234;28;20475;-67
2022/11/05 11:29:41;;;;;;;12.90;2.33;;;;;;;;;;5030052;28;20017;-67
2022/11/05 11:32:18;;;;;;;10.82;2.83;;;;;;;;;;5031632;28;20022;-67
2022/11/05 11:34:44;;;;;;;10.20;2.83;;;;;;;;;;5017793;28;20049;-68
2022/11/05 11:37:26;;;;;;;17.25;2.50;;;;;;;;;;5028176;28;20067;-69
2022/11/05 11:39:54;;;;;;;10.70;2.20;;;;;;;;;;5021581;28;20514;-69
2022/11/05 11:42:22;;;;;;;25.50;3.93;;;;;;;;;;5024880;28;20645;-67
2022/11/05 11:44:48;;;;;;;11.67;2.67;;;;;;;;;;5030768;28;20025;-66
2022/11/05 11:47:15;;;;;;;13.50;2.75;;;;;;;;;;5031766;28;20025;-67
2022/11/05 11:49:40;;;;;;;16.10;1.98;;;;;;;;;;5021124;28;20021;-70
2022/11/05 11:52:31;;;;;;;16.20;3.13;;;;;;;;;;5030191;28;20017;-68
2022/11/05 11:55:26;;;;;;;16.55;2.10;;;;;;;;;;5015691;28;20647;-67
2022/11/05 11:58:02;;;;;;;9.48;2.08;;;;;;;;;;5005910;28;20037;-65
2022/11/05 12:00:28;;;;;;;16.00;2.38;;;;;;;;;;5038788;28;20032;-70
2022/11/05 12:03:05;;;;;;;11.75;3.58;;;;;;;;;;5031658;28;20084;-68
2022/11/05 12:05:33;;;;;;;10.77;1.83;;;;;;;;;;5031713;28;20009;-70
2022/11/05 12:08:04;;;;;;;29.17;2.90;;;;;;;;;;5025332;28;20072;-68
2022/11/05 12:10:35;;;;;;;14.93;1.95;;;;;;;;;;5031167;28;20096;-69
2022/11/05 12:13:00;;;;;;;13.60;1.83;;;;;;;;;;5030527;28;20017;-68
2022/11/05 12:15:26;;;;;;;6.33;1.17;;;;;;;;;;5031599;28;20096;-67
2022/11/05 12:17:56;;;;;;;6.47;1.47;;;;;;;;;;5030188;28;20262;-68
2022/11/05 12:20:22;;;;;;;8.52;1.60;;;;;;;;;;5029940;28;20736;-67
2022/11/05 12:22:59;;;;;;;6.10;1.52;;;;;;;;;;5029879;28;20021;-68
2022/11/05 12:25:41;;;;;;;16.98;2.25;;;;;;;;;;5018502;28;20589;-68
2022/11/05 12:28:15;;;;;;;9.07;1.35;;;;;;;;;;5014150;28;20110;-69
2022/11/05 12:30:54;;;;;;;8.90;2.22;;;;;;;;;;5031854;28;20009;-66
2022/11/05 12:33:24;;;;;;;8.32;1.90;;;;;;;;;;5028101;28;20005;-69
2022/11/05 12:35:49;;;;;;;15.07;1.90;;;;;;;;;;5031541;28;20005;-69
2022/11/05 12:38:15;;;;;;;12.93;1.77;;;;;;;;;;5017984;28;20143;-67
2022/11/05 12:40:58;;;;;;;11.73;1.85;;;;;;;;;;5031424;28;20255;-67
2022/11/05 12:43:42;;;;;;;9.05;1.67;;;;;;;;;;5019163;28;20104;-65
2022/11/05 12:46:22;;;;;;;8.98;1.33;;;;;;;;;;5018102;28;20025;-65
2022/11/05 12:48:53;;;;;;;12.80;1.45;;;;;;;;;;5024832;28;20034;-66
2022/11/05 12:51:21;;;;;;;16.50;1.85;;;;;;;;;;5028235;28;20021;-67
2022/11/05 12:53:55;;;;;;;11.85;1.83;;;;;;;;;;5030466;28;20037;-66
2022/11/05 12:56:25;;;;;;;5.70;1.20;;;;;;;;;;5029861;28;20022;-68
2022/11/05 12:58:53;;;;;;;14.55;2.65;;;;;;;;;;5020682;28;20373;-68
2022/11/05 13:01:23;;;;;;;15.38;1.85;;;;;;;;;;5031408;28;20048;-68
2022/11/05 13:03:53;;;;;;;11.18;1.80;;;;;;;;;;5030882;28;20120;-66
2022/11/05 13:06:22;;;;;;;17.40;1.80;;;;;;;;;;5027955;28;20079;-68
2022/11/05 13:08:56;;;;;;;21.25;2.90;;;;;;;;;;5030043;28;20032;-68
2022/11/05 13:11:26;;;;;;;7.00;1.80;;;;;;;;;;5023087;28;20071;-68
2022/11/05 13:14:00;;;;;;;11.05;2.00;;;;;;;;;;5024226;28;20021;-67
2022/11/05 13:16:31;;;;;;;15.05;1.55;;;;;;;;;;5030428;28;20023;-68
2022/11/05 13:18:56;;;;;;;9.77;1.70;;;;;;;;;;5022792;28;20490;-65
2022/11/05 13:21:23;;;;;;;10.75;1.67;;;;;;;;;;5027118;28;20083;-68
2022/11/05 13:23:51;;;;;;;15.77;1.92;;;;;;;;;;5026142;28;20021;-66
2022/11/05 13:26:16;;;;;;;12.73;1.50;;;;;;;;;;5024508;28;20025;-67
2022/11/05 13:29:00;;;;;;;13.95;1.75;;;;;;;;;;5024603;28;20021;-67
2022/11/05 13:31:29;;;;;;;10.27;1.38;;;;;;;;;;5024473;28;20340;-68
2022/11/05 13:33:55;;;;;;;7.97;1.42;;;;;;;;;;5021504;28;20018;-68
2022/11/05 13:39:13;;;;;;;19.25;1.67;;;;;;;;;;5026501;28;20031;-68
2022/11/05 13:41:57;;;;;;;12.23;1.73;;;;;;;;;;5027501;28;20052;-68
2022/11/05 13:44:41;;;;;;;7.50;1.75;;;;;;;;;;5023382;28;20078;-65
2022/11/05 13:47:21;;;;;;;7.13;1.27;;;;;;;;;;5027137;28;20017;-66
2022/11/05 13:50:18;;;;;;;9.48;1.92;;;;;;;;;;5018460;28;20117;-65
2022/11/05 13:52:46;;;;;;;11.52;1.80;;;;;;;;;;4983341;28;20021;-65
2022/11/05 13:55:20;;;;;;;15.27;2.23;;;;;;;;;;5021901;28;20092;-68
2022/11/05 13:57:55;;;;;;;6.95;1.83;;;;;;;;;;5021875;28;20247;-67
2022/11/05 14:00:22;;;;;;;4.45;1.33;;;;;;;;;;5024691;28;20017;-67
2022/11/05 14:03:13;;;;;;;12.68;2.03;;;;;;;;;;5015814;28;20621;-65
2022/11/05 14:05:40;;;;;;;14.07;1.58;;;;;;;;;;5020841;28;20479;-67
2022/11/05 14:08:16;;;;;;;25.60;3.00;;;;;;;;;;5023558;28;20026;-67
2022/11/05 14:10:43;;;;;;;10.63;1.73;;;;;;;;;;5023534;28;20039;-65
2022/11/05 14:13:27;;;;;;;13.13;1.65;;;;;;;;;;5025336;28;20486;-67
2022/11/05 14:15:58;;;;;;;7.45;1.80;;;;;;;;;;5018137;28;20483;-68
2022/11/05 14:18:23;;;;;;;8.40;1.52;;;;;;;;;;5028676;28;20025;-65
2022/11/05 14:20:59;;;;;;;14.67;1.90;;;;;;;;;;5030501;28;20424;-67
2022/11/05 14:23:24;;;;;;;10.40;1.73;;;;;;;;;;5024584;28;20612;-68
2022/11/05 14:25:49;;;;;;;11.18;1.40;;;;;;;;;;5029078;28;20486;-67
2022/11/05 14:28:27;;;;;;;7.30;1.70;;;;;;;;;;5028471;28;20105;-66
2022/11/05 14:30:52;;;;;;;11.73;1.80;;;;;;;;;;5026562;28;20497;-66
2022/11/05 14:33:24;;;;;;;7.63;2.00;;;;;;;;;;5020510;28;20033;-66
2022/11/05 14:35:49;;;;;;;10.90;1.40;;;;;;;;;;5028965;28;20251;-65
2022/11/05 14:38:17;;;;;;;10.70;2.13;;;;;;;;;;5028125;28;20032;-69
2022/11/05 14:40:43;;;;;;;11.52;1.55;;;;;;;;;;5020967;28;20016;-67
2022/11/05 14:43:22;;;;;;;15.90;1.95;;;;;;;;;;5016999;28;20025;-65
2022/11/05 14:45:56;;;;;;;5.82;1.77;;;;;;;;;;5018510;28;20402;-68
2022/11/05 14:48:36;;;;;;;7.80;1.95;;;;;;;;;;5028600;28;20018;-67
2022/11/05 14:51:15;;;;;;;8.32;1.63;;;;;;;;;;5032495;28;20036;-67
2022/11/05 14:53:40;;;;;;;10.90;1.75;;;;;;;;;;5031283;28;20009;-65
2022/11/05 14:56:08;;;;;;;9.57;1.75;;;;;;;;;;5030460;28;20027;-66
2022/11/05 14:58:34;;;;;;;17.13;2.33;;;;;;;;;;5025603;28;20009;-67
2022/11/05 15:01:00;;;;;;;7.95;1.85;;;;;;;;;;5027303;28;20092;-66
2022/11/05 15:03:33;;;;;;;12.80;1.95;;;;;;;;;;5030237;28;20092;-67
2022/11/05 15:06:18;;;;;;;8.77;2.33;;;;;;;;;;5032387;28;20028;-66
2022/11/05 15:08:47;;;;;;;10.15;2.85;;;;;;;;;;5030619;28;20025;-66
2022/11/05 15:11:15;;;;;;;8.73;3.17;;;;;;;;;;5029679;28;20044;-68
2022/11/05 15:13:46;;;;;;;9.20;3.85;;;;;;;;;;5032642;28;20049;-65
2022/11/05 15:16:14;;;;;;;10.07;2.67;;;;;;;;;;5033127;28;20017;-63
2022/11/05 15:18:43;;;;;;;11.45;2.45;;;;;;;;;;5020388;28;20046;-66
2022/11/05 15:21:12;;;;;;;13.05;3.22;;;;;;;;;;5032176;28;20041;-69